sensor_id;sensor_type;location;lat;lon;timestamp;P1;durP1;ratioP1;P2;durP2;ratioP2
2662;SDS011;49701;48.072;7.800;2022-08-20T00:01:40;17.95;;;14.25;;
2662;SDS011;49701;48.072;7.800;2022-08-20T00:04:06;17.42;;;13.57;;
2662;SDS011;49701;48.072;7.800;2022-08-20T00:06:32;18.35;;;13.88;;
2662;SDS011;49701;48.072;7.800;2022-08-20T00:08:58;16.52;;;14.00;;
2662;SDS011;49701;48.072;7.800;2022-08-20T00:11:24;16.38;;;14.18;;
2662;SDS011;49701;48.072;7.800;2022-08-20T00:13:52;14.82;;;13.35;;
2662;SDS011;49701;48.072;7.800;2022-08-20T00:16:21;17.02;;;14.40;;
2662;SDS011;49701;48.072;7.800;2022-08-20T00:18:48;17.58;;;15.50;;
2662;SDS011;49701;48.072;7.800;2022-08-20T00:21:15;18.98;;;15.20;;
2662;SDS011;49701;48.072;7.800;2022-08-20T00:23:43;17.40;;;15.13;;
2662;SDS011;49701;48.072;7.800;2022-08-20T00:26:12;17.75;;;15.25;;
2662;SDS011;49701;48.072;7.800;2022-08-20T00:28:38;18.55;;;15.05;;
2662;SDS011;49701;48.072;7.800;2022-08-20T00:31:05;16.70;;;14.35;;
2662;SDS011;49701;48.072;7.800;2022-08-20T00:33:33;20.67;;;15.30;;
2662;SDS011;49701;48.072;7.800;2022-08-20T00:35:59;19.10;;;14.90;;
2662;SDS011;49701;48.072;7.800;2022-08-20T00:38:31;16.08;;;14.25;;
2662;SDS011;49701;48.072;7.800;2022-08-20T00:40:57;18.50;;;15.18;;
2662;SDS011;49701;48.072;7.800;2022-08-20T00:45:59;17.25;;;15.38;;
2662;SDS011;49701;48.072;7.800;2022-08-20T00:48:29;18.90;;;15.23;;
2662;SDS011;49701;48.072;7.800;2022-08-20T00:51:02;20.35;;;16.42;;
2662;SDS011;49701;48.072;7.800;2022-08-20T00:53:45;20.55;;;15.68;;
2662;SDS011;49701;48.072;7.800;2022-08-20T00:56:12;19.23;;;15.35;;
2662;SDS011;49701;48.072;7.800;2022-08-20T00:58:38;23.17;;;16.73;;
2662;SDS011;49701;48.072;7.800;2022-08-20T01:01:06;20.33;;;16.77;;
2662;SDS011;49701;48.072;7.800;2022-08-20T01:03:33;23.63;;;17.17;;
2662;SDS011;49701;48.072;7.800;2022-08-20T01:05:58;21.38;;;16.52;;
2662;SDS011;49701;48.072;7.800;2022-08-20T01:08:24;20.80;;;16.35;;
2662;SDS011;49701;48.072;7.800;2022-08-20T01:10:51;18.83;;;16.15;;
2662;SDS011;49701;48.072;7.800;2022-08-20T01:13:31;18.33;;;15.55;;
2662;SDS011;49701;48.072;7.800;2022-08-20T01:15:59;17.38;;;15.20;;
2662;SDS011;49701;48.072;7.800;2022-08-20T01:18:28;21.13;;;16.02;;
2662;SDS011;49701;48.072;7.800;2022-08-20T01:20:56;19.63;;;15.15;;
2662;SDS011;49701;48.072;7.800;2022-08-20T01:28:47;18.17;;;15.60;;
2662;SDS011;49701;48.072;7.800;2022-08-20T01:31:20;18.30;;;16.10;;
2662;SDS011;49701;48.072;7.800;2022-08-20T01:33:48;15.85;;;14.15;;
2662;SDS011;49701;48.072;7.800;2022-08-20T01:36:17;18.70;;;15.10;;
2662;SDS011;49701;48.072;7.800;2022-08-20T01:38:47;18.27;;;15.10;;
2662;SDS011;49701;48.072;7.800;2022-08-20T01:44:00;18.27;;;14.85;;
2662;SDS011;49701;48.072;7.800;2022-08-20T01:46:28;25.00;;;14.43;;
2662;SDS011;49701;48.072;7.800;2022-08-20T01:49:05;19.58;;;14.45;;
2662;SDS011;49701;48.072;7.800;2022-08-20T01:51:35;17.17;;;14.27;;
2662;SDS011;49701;48.072;7.800;2022-08-20T01:54:01;15.48;;;13.88;;
2662;SDS011;49701;48.072;7.800;2022-08-20T01:56:29;15.18;;;13.32;;
2662;SDS011;49701;48.072;7.800;2022-08-20T01:58:57;15.25;;;13.57;;
2662;SDS011;49701;48.072;7.800;2022-08-20T02:03:59;15.35;;;13.77;;
2662;SDS011;49701;48.072;7.800;2022-08-20T02:06:30;18.48;;;14.95;;
2662;SDS011;49701;48.072;7.800;2022-08-20T02:08:58;17.77;;;15.07;;
2662;SDS011;49701;48.072;7.800;2022-08-20T02:11:25;18.60;;;14.63;;
2662;SDS011;49701;48.072;7.800;2022-08-20T02:13:53;16.02;;;14.32;;
2662;SDS011;49701;48.072;7.800;2022-08-20T02:16:21;16.27;;;14.60;;
2662;SDS011;49701;48.072;7.800;2022-08-20T02:18:52;18.73;;;16.77;;
2662;SDS011;49701;48.072;7.800;2022-08-20T02:21:22;17.90;;;14.85;;
2662;SDS011;49701;48.072;7.800;2022-08-20T02:23:51;15.70;;;13.88;;
2662;SDS011;49701;48.072;7.800;2022-08-20T02:26:16;15.33;;;13.70;;
2662;SDS011;49701;48.072;7.800;2022-08-20T02:28:47;17.13;;;14.90;;
2662;SDS011;49701;48.072;7.800;2022-08-20T02:31:15;14.93;;;13.43;;
2662;SDS011;49701;48.072;7.800;2022-08-20T02:33:42;15.07;;;13.63;;
2662;SDS011;49701;48.072;7.800;2022-08-20T02:36:08;15.68;;;13.98;;
2662;SDS011;49701;48.072;7.800;2022-08-20T02:38:36;16.10;;;13.65;;
2662;SDS011;49701;48.072;7.800;2022-08-20T02:41:05;18.60;;;14.18;;
2662;SDS011;49701;48.072;7.800;2022-08-20T02:43:32;17.83;;;14.82;;
2662;SDS011;49701;48.072;7.800;2022-08-20T02:45:58;17.58;;;14.23;;
2662;SDS011;49701;48.072;7.800;2022-08-20T02:48:25;16.73;;;14.32;;
2662;SDS011;49701;48.072;7.800;2022-08-20T02:50:52;16.40;;;14.73;;
2662;SDS011;49701;48.072;7.800;2022-08-20T02:53:26;17.02;;;14.63;;
2662;SDS011;49701;48.072;7.800;2022-08-20T02:55:53;19.85;;;15.60;;
2662;SDS011;49701;48.072;7.800;2022-08-20T02:58:19;19.42;;;14.75;;
2662;SDS011;49701;48.072;7.800;2022-08-20T03:00:45;17.33;;;15.27;;
2662;SDS011;49701;48.072;7.800;2022-08-20T03:03:12;15.73;;;13.93;;
2662;SDS011;49701;48.072;7.800;2022-08-20T03:05:39;19.83;;;14.80;;
2662;SDS011;49701;48.072;7.800;2022-08-20T03:08:07;18.45;;;14.48;;
2662;SDS011;49701;48.072;7.800;2022-08-20T03:10:34;22.08;;;14.80;;
2662;SDS011;49701;48.072;7.800;2022-08-20T03:13:02;16.73;;;14.23;;
2662;SDS011;49701;48.072;7.800;2022-08-20T03:15:29;16.10;;;13.90;;
2662;SDS011;49701;48.072;7.800;2022-08-20T03:17:56;21.02;;;14.50;;
2662;SDS011;49701;48.072;7.800;2022-08-20T03:20:32;14.95;;;12.95;;
2662;SDS011;49701;48.072;7.800;2022-08-20T03:22:58;16.35;;;13.40;;
2662;SDS011;49701;48.072;7.800;2022-08-20T03:25:23;14.88;;;12.25;;
2662;SDS011;49701;48.072;7.800;2022-08-20T03:27:49;18.30;;;12.82;;
2662;SDS011;49701;48.072;7.800;2022-08-20T03:30:15;13.20;;;11.95;;
2662;SDS011;49701;48.072;7.800;2022-08-20T03:32:42;15.18;;;12.55;;
2662;SDS011;49701;48.072;7.800;2022-08-20T03:35:09;15.48;;;12.25;;
2662;SDS011;49701;48.072;7.800;2022-08-20T03:37:37;12.77;;;11.55;;
2662;SDS011;49701;48.072;7.800;2022-08-20T03:40:05;17.08;;;11.75;;
2662;SDS011;49701;48.072;7.800;2022-08-20T03:42:32;13.25;;;11.93;;
2662;SDS011;49701;48.072;7.800;2022-08-20T03:44:58;13.10;;;11.68;;
2662;SDS011;49701;48.072;7.800;2022-08-20T03:47:24;14.23;;;11.93;;
2662;SDS011;49701;48.072;7.800;2022-08-20T03:49:50;17.98;;;12.95;;
2662;SDS011;49701;48.072;7.800;2022-08-20T03:52:16;16.05;;;13.18;;
2662;SDS011;49701;48.072;7.800;2022-08-20T03:54:42;15.45;;;11.80;;
2662;SDS011;49701;48.072;7.800;2022-08-20T03:57:11;14.30;;;12.70;;
2662;SDS011;49701;48.072;7.800;2022-08-20T03:59:38;13.68;;;12.20;;
2662;SDS011;49701;48.072;7.800;2022-08-20T04:02:04;19.05;;;12.77;;
2662;SDS011;49701;48.072;7.800;2022-08-20T04:04:30;14.75;;;11.25;;
2662;SDS011;49701;48.072;7.800;2022-08-20T04:06:56;14.02;;;11.82;;
2662;SDS011;49701;48.072;7.800;2022-08-20T04:09:22;13.23;;;11.88;;
2662;SDS011;49701;48.072;7.800;2022-08-20T04:11:47;17.27;;;12.80;;
2662;SDS011;49701;48.072;7.800;2022-08-20T04:14:14;12.85;;;11.27;;
2662;SDS011;49701;48.072;7.800;2022-08-20T04:16:39;15.23;;;12.13;;
2662;SDS011;49701;48.072;7.800;2022-08-20T04:19:05;14.10;;;12.10;;
2662;SDS011;49701;48.072;7.800;2022-08-20T04:21:32;13.82;;;11.60;;
2662;SDS011;49701;48.072;7.800;2022-08-20T04:24:03;14.25;;;11.85;;
2662;SDS011;49701;48.072;7.800;2022-08-20T04:26:29;15.80;;;11.57;;
2662;SDS011;49701;48.072;7.800;2022-08-20T04:28:56;13.90;;;11.77;;
2662;SDS011;49701;48.072;7.800;2022-08-20T04:31:21;13.55;;;11.98;;
2662;SDS011;49701;48.072;7.800;2022-08-20T04:33:57;17.15;;;13.18;;
2662;SDS011;49701;48.072;7.800;2022-08-20T04:36:23;14.73;;;12.15;;
2662;SDS011;49701;48.072;7.800;2022-08-20T04:38:49;13.38;;;11.98;;
2662;SDS011;49701;48.072;7.800;2022-08-20T04:41:14;17.05;;;12.35;;
2662;SDS011;49701;48.072;7.800;2022-08-20T04:43:40;17.63;;;12.27;;
2662;SDS011;49701;48.072;7.800;2022-08-20T04:46:06;14.30;;;12.90;;
2662;SDS011;49701;48.072;7.800;2022-08-20T04:48:34;18.17;;;11.55;;
2662;SDS011;49701;48.072;7.800;2022-08-20T04:51:03;15.00;;;11.80;;
2662;SDS011;49701;48.072;7.800;2022-08-20T04:53:30;14.48;;;12.80;;
2662;SDS011;49701;48.072;7.800;2022-08-20T04:55:57;14.32;;;12.77;;
2662;SDS011;49701;48.072;7.800;2022-08-20T04:58:25;16.13;;;13.10;;
2662;SDS011;49701;48.072;7.800;2022-08-20T05:00:55;13.73;;;11.35;;
2662;SDS011;49701;48.072;7.800;2022-08-20T05:03:22;14.73;;;11.77;;
2662;SDS011;49701;48.072;7.800;2022-08-20T05:05:48;13.23;;;11.40;;
2662;SDS011;49701;48.072;7.800;2022-08-20T05:08:15;16.65;;;12.00;;
2662;SDS011;49701;48.072;7.800;2022-08-20T05:10:42;15.13;;;12.05;;
2662;SDS011;49701;48.072;7.800;2022-08-20T05:13:09;11.68;;;10.40;;
2662;SDS011;49701;48.072;7.800;2022-08-20T05:15:36;16.05;;;10.10;;
2662;SDS011;49701;48.072;7.800;2022-08-20T05:18:03;13.25;;;11.07;;
2662;SDS011;49701;48.072;7.800;2022-08-20T05:20:32;14.60;;;11.57;;
2662;SDS011;49701;48.072;7.800;2022-08-20T05:23:00;12.73;;;10.57;;
2662;SDS011;49701;48.072;7.800;2022-08-20T05:25:26;11.95;;;9.55;;
2662;SDS011;49701;48.072;7.800;2022-08-20T05:28:00;12.68;;;10.40;;
2662;SDS011;49701;48.072;7.800;2022-08-20T05:30:31;13.52;;;9.98;;
2662;SDS011;49701;48.072;7.800;2022-08-20T05:33:00;11.23;;;10.05;;
2662;SDS011;49701;48.072;7.800;2022-08-20T05:35:27;13.85;;;10.15;;
2662;SDS011;49701;48.072;7.800;2022-08-20T05:37:54;11.27;;;9.95;;
2662;SDS011;49701;48.072;7.800;2022-08-20T05:40:20;12.82;;;9.02;;
2662;SDS011;49701;48.072;7.800;2022-08-20T05:42:46;11.95;;;8.27;;
2662;SDS011;49701;48.072;7.800;2022-08-20T05:45:12;10.02;;;9.02;;
2662;SDS011;49701;48.072;7.800;2022-08-20T05:47:40;10.95;;;8.85;;
2662;SDS011;49701;48.072;7.800;2022-08-20T05:50:07;11.52;;;8.15;;
2662;SDS011;49701;48.072;7.800;2022-08-20T05:52:33;12.40;;;7.82;;
2662;SDS011;49701;48.072;7.800;2022-08-20T05:54:59;12.13;;;7.38;;
2662;SDS011;49701;48.072;7.800;2022-08-20T05:57:25;10.13;;;7.45;;
2662;SDS011;49701;48.072;7.800;2022-08-20T05:59:50;12.15;;;7.43;;
2662;SDS011;49701;48.072;7.800;2022-08-20T06:02:16;10.02;;;7.07;;
2662;SDS011;49701;48.072;7.800;2022-08-20T06:07:26;8.23;;;6.07;;
2662;SDS011;49701;48.072;7.800;2022-08-20T06:09:55;7.63;;;6.18;;
2662;SDS011;49701;48.072;7.800;2022-08-20T06:12:21;9.73;;;5.78;;
2662;SDS011;49701;48.072;7.800;2022-08-20T06:14:46;8.90;;;5.60;;
2662;SDS011;49701;48.072;7.800;2022-08-20T06:17:13;5.70;;;5.05;;
2662;SDS011;49701;48.072;7.800;2022-08-20T06:19:40;7.75;;;4.97;;
2662;SDS011;49701;48.072;7.800;2022-08-20T06:22:07;7.13;;;5.30;;
2662;SDS011;49701;48.072;7.800;2022-08-20T06:24:33;6.85;;;4.82;;
2662;SDS011;49701;48.072;7.800;2022-08-20T06:27:00;6.95;;;4.72;;
2662;SDS011;49701;48.072;7.800;2022-08-20T06:29:27;5.78;;;4.47;;
2662;SDS011;49701;48.072;7.800;2022-08-20T06:31:53;9.10;;;5.70;;
2662;SDS011;49701;48.072;7.800;2022-08-20T06:34:19;5.55;;;4.85;;
2662;SDS011;49701;48.072;7.800;2022-08-20T06:36:45;5.65;;;5.05;;
2662;SDS011;49701;48.072;7.800;2022-08-20T06:39:12;8.52;;;4.88;;
2662;SDS011;49701;48.072;7.800;2022-08-20T06:41:38;5.55;;;4.10;;
2662;SDS011;49701;48.072;7.800;2022-08-20T06:44:04;7.63;;;4.45;;
2662;SDS011;49701;48.072;7.800;2022-08-20T06:46:31;7.85;;;4.30;;
2662;SDS011;49701;48.072;7.800;2022-08-20T06:48:58;6.45;;;3.92;;
2662;SDS011;49701;48.072;7.800;2022-08-20T06:51:23;12.65;;;4.35;;
2662;SDS011;49701;48.072;7.800;2022-08-20T06:53:49;5.72;;;3.78;;
2662;SDS011;49701;48.072;7.800;2022-08-20T06:56:15;7.90;;;3.83;;
2662;SDS011;49701;48.072;7.800;2022-08-20T06:58:40;6.65;;;3.63;;
2662;SDS011;49701;48.072;7.800;2022-08-20T07:01:08;6.63;;;3.85;;
2662;SDS011;49701;48.072;7.800;2022-08-20T07:03:34;5.20;;;3.58;;
2662;SDS011;49701;48.072;7.800;2022-08-20T07:06:02;4.28;;;2.63;;
2662;SDS011;49701;48.072;7.800;2022-08-20T07:08:27;5.13;;;3.08;;
2662;SDS011;49701;48.072;7.800;2022-08-20T07:10:53;6.57;;;3.70;;
2662;SDS011;49701;48.072;7.800;2022-08-20T07:13:19;6.95;;;3.83;;
2662;SDS011;49701;48.072;7.800;2022-08-20T07:15:45;4.85;;;3.22;;
2662;SDS011;49701;48.072;7.800;2022-08-20T07:18:11;4.70;;;3.10;;
2662;SDS011;49701;48.072;7.800;2022-08-20T07:20:38;4.45;;;3.17;;
2662;SDS011;49701;48.072;7.800;2022-08-20T07:23:04;4.45;;;3.03;;
2662;SDS011;49701;48.072;7.800;2022-08-20T07:25:32;6.35;;;2.90;;
2662;SDS011;49701;48.072;7.800;2022-08-20T07:28:03;5.13;;;3.05;;
2662;SDS011;49701;48.072;7.800;2022-08-20T07:30:31;4.38;;;2.58;;
2662;SDS011;49701;48.072;7.800;2022-08-20T07:33:17;6.63;;;2.72;;
2662;SDS011;49701;48.072;7.800;2022-08-20T07:35:43;4.90;;;2.55;;
2662;SDS011;49701;48.072;7.800;2022-08-20T07:38:13;3.10;;;2.25;;
2662;SDS011;49701;48.072;7.800;2022-08-20T07:40:43;2.63;;;2.03;;
2662;SDS011;49701;48.072;7.800;2022-08-20T07:43:09;2.28;;;1.98;;
2662;SDS011;49701;48.072;7.800;2022-08-20T07:45:34;2.67;;;1.98;;
2662;SDS011;49701;48.072;7.800;2022-08-20T07:48:05;2.30;;;1.88;;
2662;SDS011;49701;48.072;7.800;2022-08-20T07:50:35;2.17;;;2.00;;
2662;SDS011;49701;48.072;7.800;2022-08-20T07:53:02;2.97;;;2.10;;
2662;SDS011;49701;48.072;7.800;2022-08-20T07:55:27;3.20;;;1.70;;
2662;SDS011;49701;48.072;7.800;2022-08-20T07:57:54;2.30;;;1.90;;
2662;SDS011;49701;48.072;7.800;2022-08-20T08:00:24;2.45;;;1.70;;
2662;SDS011;49701;48.072;7.800;2022-08-20T08:02:51;3.10;;;2.15;;
2662;SDS011;49701;48.072;7.800;2022-08-20T08:05:16;3.97;;;1.60;;
2662;SDS011;49701;48.072;7.800;2022-08-20T08:07:42;2.38;;;1.58;;
2662;SDS011;49701;48.072;7.800;2022-08-20T08:10:11;1.63;;;1.40;;
2662;SDS011;49701;48.072;7.800;2022-08-20T08:12:43;1.70;;;1.33;;
2662;SDS011;49701;48.072;7.800;2022-08-20T08:15:18;1.33;;;1.08;;
2662;SDS011;49701;48.072;7.800;2022-08-20T08:17:48;1.38;;;1.27;;
2662;SDS011;49701;48.072;7.800;2022-08-20T08:20:16;3.55;;;2.50;;
2662;SDS011;49701;48.072;7.800;2022-08-20T08:22:43;5.75;;;3.72;;
2662;SDS011;49701;48.072;7.800;2022-08-20T08:25:12;27.55;;;15.80;;
2662;SDS011;49701;48.072;7.800;2022-08-20T08:27:41;44.25;;;25.45;;
2662;SDS011;49701;48.072;7.800;2022-08-20T08:30:08;20.10;;;11.07;;
2662;SDS011;49701;48.072;7.800;2022-08-20T08:32:36;9.35;;;4.25;;
2662;SDS011;49701;48.072;7.800;2022-08-20T08:35:22;2.65;;;1.67;;
2662;SDS011;49701;48.072;7.800;2022-08-20T08:37:48;1.83;;;1.33;;
2662;SDS011;49701;48.072;7.800;2022-08-20T08:40:14;1.35;;;0.80;;
2662;SDS011;49701;48.072;7.800;2022-08-20T08:42:42;0.80;;;0.70;;
2662;SDS011;49701;48.072;7.800;2022-08-20T08:45:12;0.88;;;0.50;;
2662;SDS011;49701;48.072;7.800;2022-08-20T08:47:42;1.20;;;0.63;;
2662;SDS011;49701;48.072;7.800;2022-08-20T08:50:12;1.70;;;1.10;;
2662;SDS011;49701;48.072;7.800;2022-08-20T08:52:46;1.40;;;1.10;;
2662;SDS011;49701;48.072;7.800;2022-08-20T08:55:18;0.80;;;0.80;;
2662;SDS011;49701;48.072;7.800;2022-08-20T08:57:45;2.78;;;1.20;;
2662;SDS011;49701;48.072;7.800;2022-08-20T09:00:14;4.47;;;1.33;;
2662;SDS011;49701;48.072;7.800;2022-08-20T09:02:53;1.63;;;0.80;;
2662;SDS011;49701;48.072;7.800;2022-08-20T09:05:28;2.67;;;1.20;;
2662;SDS011;49701;48.072;7.800;2022-08-20T09:08:06;1.25;;;0.80;;
2662;SDS011;49701;48.072;7.800;2022-08-20T09:10:36;1.17;;;0.77;;
2662;SDS011;49701;48.072;7.800;2022-08-20T09:13:03;1.35;;;0.70;;
2662;SDS011;49701;48.072;7.800;2022-08-20T09:15:29;1.00;;;0.70;;
2662;SDS011;49701;48.072;7.800;2022-08-20T09:17:55;2.28;;;0.80;;
2662;SDS011;49701;48.072;7.800;2022-08-20T09:20:21;1.52;;;1.33;;
2662;SDS011;49701;48.072;7.800;2022-08-20T09:22:46;1.20;;;0.80;;
2662;SDS011;49701;48.072;7.800;2022-08-20T09:25:12;1.08;;;0.85;;
2662;SDS011;49701;48.072;7.800;2022-08-20T09:27:38;1.95;;;1.05;;
2662;SDS011;49701;48.072;7.800;2022-08-20T09:30:03;1.50;;;0.85;;
2662;SDS011;49701;48.072;7.800;2022-08-20T09:32:30;2.78;;;0.90;;
2662;SDS011;49701;48.072;7.800;2022-08-20T09:34:55;1.13;;;1.00;;
2662;SDS011;49701;48.072;7.800;2022-08-20T09:37:23;1.67;;;1.05;;
2662;SDS011;49701;48.072;7.800;2022-08-20T09:39:50;27.35;;;2.70;;
2662;SDS011;49701;48.072;7.800;2022-08-20T09:42:17;1.38;;;0.70;;
2662;SDS011;49701;48.072;7.800;2022-08-20T09:44:45;2.20;;;0.85;;
2662;SDS011;49701;48.072;7.800;2022-08-20T09:47:11;1.05;;;0.95;;
2662;SDS011;49701;48.072;7.800;2022-08-20T09:49:37;2.85;;;1.05;;
2662;SDS011;49701;48.072;7.800;2022-08-20T09:52:04;1.58;;;0.85;;
2662;SDS011;49701;48.072;7.800;2022-08-20T09:54:31;0.85;;;0.80;;
2662;SDS011;49701;48.072;7.800;2022-08-20T09:56:59;1.40;;;1.00;;
2662;SDS011;49701;48.072;7.800;2022-08-20T09:59:28;0.90;;;0.90;;
2662;SDS011;49701;48.072;7.800;2022-08-20T10:01:55;2.90;;;1.00;;
2662;SDS011;49701;48.072;7.800;2022-08-20T10:04:21;1.35;;;0.90;;
2662;SDS011;49701;48.072;7.800;2022-08-20T10:06:46;0.60;;;0.60;;
2662;SDS011;49701;48.072;7.800;2022-08-20T10:09:12;3.10;;;0.90;;
2662;SDS011;49701;48.072;7.800;2022-08-20T10:11:38;1.17;;;0.90;;
2662;SDS011;49701;48.072;7.800;2022-08-20T10:14:04;1.27;;;1.05;;
2662;SDS011;49701;48.072;7.800;2022-08-20T10:16:30;1.88;;;1.00;;
2662;SDS011;49701;48.072;7.800;2022-08-20T10:18:56;0.80;;;0.80;;
2662;SDS011;49701;48.072;7.800;2022-08-20T10:21:22;2.10;;;0.90;;
2662;SDS011;49701;48.072;7.800;2022-08-20T10:23:47;1.67;;;0.93;;
2662;SDS011;49701;48.072;7.800;2022-08-20T10:26:14;0.90;;;0.90;;
2662;SDS011;49701;48.072;7.800;2022-08-20T10:28:41;1.42;;;0.80;;
2662;SDS011;49701;48.072;7.800;2022-08-20T10:31:07;0.82;;;0.82;;
2662;SDS011;49701;48.072;7.800;2022-08-20T10:33:37;1.10;;;1.00;;
2662;SDS011;49701;48.072;7.800;2022-08-20T10:36:07;2.55;;;0.93;;
2662;SDS011;49701;48.072;7.800;2022-08-20T10:38:33;1.05;;;0.90;;
2662;SDS011;49701;48.072;7.800;2022-08-20T10:40:59;0.90;;;0.70;;
2662;SDS011;49701;48.072;7.800;2022-08-20T10:43:25;0.90;;;0.90;;
2662;SDS011;49701;48.072;7.800;2022-08-20T10:45:51;1.83;;;0.60;;
2662;SDS011;49701;48.072;7.800;2022-08-20T10:48:16;1.10;;;0.80;;
2662;SDS011;49701;48.072;7.800;2022-08-20T10:50:42;1.20;;;0.70;;
2662;SDS011;49701;48.072;7.800;2022-08-20T10:55:33;1.20;;;0.80;;
2662;SDS011;49701;48.072;7.800;2022-08-20T10:57:58;4.88;;;0.70;;
2662;SDS011;49701;48.072;7.800;2022-08-20T11:00:24;2.80;;;0.75;;
2662;SDS011;49701;48.072;7.800;2022-08-20T11:02:50;1.13;;;0.43;;
2662;SDS011;49701;48.072;7.800;2022-08-20T11:05:16;0.50;;;0.50;;
2662;SDS011;49701;48.072;7.800;2022-08-20T11:07:43;1.20;;;0.88;;
2662;SDS011;49701;48.072;7.800;2022-08-20T11:10:09;0.73;;;0.50;;
2662;SDS011;49701;48.072;7.800;2022-08-20T11:12:35;0.57;;;0.40;;
2662;SDS011;49701;48.072;7.800;2022-08-20T11:15:01;0.65;;;0.57;;
2662;SDS011;49701;48.072;7.800;2022-08-20T11:17:28;0.90;;;0.60;;
2662;SDS011;49701;48.072;7.800;2022-08-20T11:22:22;1.08;;;0.47;;
2662;SDS011;49701;48.072;7.800;2022-08-20T11:24:47;0.52;;;0.52;;
2662;SDS011;49701;48.072;7.800;2022-08-20T11:27:33;0.77;;;0.50;;
2662;SDS011;49701;48.072;7.800;2022-08-20T11:30:03;2.00;;;1.42;;
2662;SDS011;49701;48.072;7.800;2022-08-20T11:32:30;0.50;;;0.50;;
2662;SDS011;49701;48.072;7.800;2022-08-20T11:42:14;1.00;;;0.38;;
2662;SDS011;49701;48.072;7.800;2022-08-20T11:44:39;0.82;;;0.50;;
2662;SDS011;49701;48.072;7.800;2022-08-20T11:47:06;0.40;;;0.40;;
2662;SDS011;49701;48.072;7.800;2022-08-20T11:49:33;1.92;;;0.50;;
2662;SDS011;49701;48.072;7.800;2022-08-20T11:52:00;0.60;;;0.60;;
2662;SDS011;49701;48.072;7.800;2022-08-20T11:54:25;2.05;;;0.60;;
2662;SDS011;49701;48.072;7.800;2022-08-20T11:56:55;1.45;;;0.70;;
2662;SDS011;49701;48.072;7.800;2022-08-20T11:59:22;2.67;;;0.68;;
2662;SDS011;49701;48.072;7.800;2022-08-20T12:01:48;1.95;;;0.50;;
2662;SDS011;49701;48.072;7.800;2022-08-20T12:04:14;1.02;;;0.60;;
2662;SDS011;49701;48.072;7.800;2022-08-20T12:06:40;0.30;;;0.30;;
2662;SDS011;49701;48.072;7.800;2022-08-20T12:09:05;1.65;;;0.68;;
2662;SDS011;49701;48.072;7.800;2022-08-20T12:11:31;1.75;;;0.60;;
2662;SDS011;49701;48.072;7.800;2022-08-20T12:13:56;0.35;;;0.35;;
2662;SDS011;49701;48.072;7.800;2022-08-20T12:16:22;0.50;;;0.50;;
2662;SDS011;49701;48.072;7.800;2022-08-20T12:18:48;0.73;;;0.50;;
2662;SDS011;49701;48.072;7.800;2022-08-20T12:21:13;0.50;;;0.30;;
2662;SDS011;49701;48.072;7.800;2022-08-20T12:23:39;0.50;;;0.40;;
2662;SDS011;49701;48.072;7.800;2022-08-20T12:26:05;2.60;;;0.80;;
2662;SDS011;49701;48.072;7.800;2022-08-20T12:33:22;4.53;;;1.17;;
2662;SDS011;49701;48.072;7.800;2022-08-20T12:35:48;4.82;;;1.30;;
2662;SDS011;49701;48.072;7.800;2022-08-20T12:38:14;4.38;;;1.35;;
2662;SDS011;49701;48.072;7.800;2022-08-20T12:40:40;0.93;;;0.70;;
2662;SDS011;49701;48.072;7.800;2022-08-20T12:43:06;2.25;;;0.70;;
2662;SDS011;49701;48.072;7.800;2022-08-20T12:45:33;3.38;;;0.70;;
2662;SDS011;49701;48.072;7.800;2022-08-20T12:48:04;2.38;;;0.85;;
2662;SDS011;49701;48.072;7.800;2022-08-20T12:50:31;1.63;;;0.90;;
2662;SDS011;49701;48.072;7.800;2022-08-20T12:52:58;1.27;;;0.60;;
2662;SDS011;49701;48.072;7.800;2022-08-20T12:55:25;4.40;;;0.73;;
2662;SDS011;49701;48.072;7.800;2022-08-20T12:57:53;1.13;;;0.50;;
2662;SDS011;49701;48.072;7.800;2022-08-20T13:00:28;1.35;;;0.60;;
2662;SDS011;49701;48.072;7.800;2022-08-20T13:02:56;3.35;;;0.68;;
2662;SDS011;49701;48.072;7.800;2022-08-20T13:05:24;1.20;;;0.57;;
2662;SDS011;49701;48.072;7.800;2022-08-20T13:07:51;1.00;;;0.60;;
2662;SDS011;49701;48.072;7.800;2022-08-20T13:10:18;0.70;;;0.60;;
2662;SDS011;49701;48.072;7.800;2022-08-20T13:12:46;1.70;;;0.60;;
2662;SDS011;49701;48.072;7.800;2022-08-20T13:15:12;2.05;;;0.60;;
2662;SDS011;49701;48.072;7.800;2022-08-20T13:17:38;1.15;;;0.60;;
2662;SDS011;49701;48.072;7.800;2022-08-20T13:20:04;1.52;;;0.50;;
2662;SDS011;49701;48.072;7.800;2022-08-20T13:22:31;1.88;;;0.30;;
2662;SDS011;49701;48.072;7.800;2022-08-20T13:24:57;1.75;;;0.60;;
2662;SDS011;49701;48.072;7.800;2022-08-20T13:27:22;6.45;;;1.25;;
2662;SDS011;49701;48.072;7.800;2022-08-20T13:29:49;4.32;;;1.23;;
2662;SDS011;49701;48.072;7.800;2022-08-20T13:32:16;3.65;;;0.80;;
2662;SDS011;49701;48.072;7.800;2022-08-20T13:34:43;1.30;;;0.70;;
2662;SDS011;49701;48.072;7.800;2022-08-20T13:37:19;2.15;;;0.80;;
2662;SDS011;49701;48.072;7.800;2022-08-20T13:39:47;1.65;;;0.80;;
2662;SDS011;49701;48.072;7.800;2022-08-20T13:42:13;0.82;;;0.70;;
2662;SDS011;49701;48.072;7.800;2022-08-20T13:44:39;1.65;;;0.90;;
2662;SDS011;49701;48.072;7.800;2022-08-20T13:47:16;1.35;;;0.63;;
2662;SDS011;49701;48.072;7.800;2022-08-20T13:49:44;0.82;;;0.52;;
2662;SDS011;49701;48.072;7.800;2022-08-20T13:52:10;2.47;;;0.70;;
2662;SDS011;49701;48.072;7.800;2022-08-20T13:54:36;0.68;;;0.47;;
2662;SDS011;49701;48.072;7.800;2022-08-20T13:57:06;1.00;;;0.50;;
2662;SDS011;49701;48.072;7.800;2022-08-20T13:59:40;0.50;;;0.50;;
2662;SDS011;49701;48.072;7.800;2022-08-20T14:02:07;0.60;;;0.60;;
2662;SDS011;49701;48.072;7.800;2022-08-20T14:04:34;0.55;;;0.40;;
2662;SDS011;49701;48.072;7.800;2022-08-20T14:07:10;0.70;;;0.50;;
2662;SDS011;49701;48.072;7.800;2022-08-20T14:09:40;1.58;;;0.50;;
2662;SDS011;49701;48.072;7.800;2022-08-20T14:12:08;0.30;;;0.30;;
2662;SDS011;49701;48.072;7.800;2022-08-20T14:14:35;0.90;;;0.40;;
2662;SDS011;49701;48.072;7.800;2022-08-20T14:17:13;0.93;;;0.30;;
2662;SDS011;49701;48.072;7.800;2022-08-20T14:19:40;0.47;;;0.40;;
2662;SDS011;49701;48.072;7.800;2022-08-20T14:22:05;6.18;;;4.50;;
2662;SDS011;49701;48.072;7.800;2022-08-20T14:24:31;1.17;;;1.05;;
2662;SDS011;49701;48.072;7.800;2022-08-20T14:26:56;0.70;;;0.45;;
2662;SDS011;49701;48.072;7.800;2022-08-20T14:29:22;1.05;;;0.40;;
2662;SDS011;49701;48.072;7.800;2022-08-20T14:31:47;0.30;;;0.30;;
2662;SDS011;49701;48.072;7.800;2022-08-20T14:34:14;0.38;;;0.38;;
2662;SDS011;49701;48.072;7.800;2022-08-20T14:36:40;1.23;;;0.70;;
2662;SDS011;49701;48.072;7.800;2022-08-20T14:39:06;1.80;;;1.13;;
2662;SDS011;49701;48.072;7.800;2022-08-20T14:41:32;0.32;;;0.30;;
2662;SDS011;49701;48.072;7.800;2022-08-20T14:43:57;0.68;;;0.40;;
2662;SDS011;49701;48.072;7.800;2022-08-20T14:46:23;2.00;;;0.45;;
2662;SDS011;49701;48.072;7.800;2022-08-20T14:48:48;0.38;;;0.30;;
2662;SDS011;49701;48.072;7.800;2022-08-20T14:51:14;1.65;;;0.32;;
2662;SDS011;49701;48.072;7.800;2022-08-20T14:53:39;0.70;;;0.40;;
2662;SDS011;49701;48.072;7.800;2022-08-20T14:56:05;0.50;;;0.40;;
2662;SDS011;49701;48.072;7.800;2022-08-20T14:58:31;0.88;;;0.60;;
2662;SDS011;49701;48.072;7.800;2022-08-20T15:00:56;0.90;;;0.40;;
2662;SDS011;49701;48.072;7.800;2022-08-20T15:03:22;1.67;;;0.50;;
2662;SDS011;49701;48.072;7.800;2022-08-20T15:05:52;0.75;;;0.40;;
2662;SDS011;49701;48.072;7.800;2022-08-20T15:08:18;1.35;;;0.40;;
2662;SDS011;49701;48.072;7.800;2022-08-20T15:10:43;0.60;;;0.40;;
2662;SDS011;49701;48.072;7.800;2022-08-20T15:13:09;0.68;;;0.40;;
2662;SDS011;49701;48.072;7.800;2022-08-20T15:15:34;0.93;;;0.60;;
2662;SDS011;49701;48.072;7.800;2022-08-20T15:18:00;0.55;;;0.47;;
2662;SDS011;49701;48.072;7.800;2022-08-20T15:20:28;1.30;;;0.68;;
2662;SDS011;49701;48.072;7.800;2022-08-20T15:22:55;0.40;;;0.40;;
2662;SDS011;49701;48.072;7.800;2022-08-20T15:25:22;0.80;;;0.47;;